sensor_id;sensor_type;location;lat;lon;timestamp;temperature;humidity
2489;DHT22;1255;48.716;9.124;2022-10-26T00:01:02;11.80;99.90
2489;DHT22;1255;48.716;9.124;2022-10-26T00:03:29;11.80;99.90
2489;DHT22;1255;48.716;9.124;2022-10-26T00:06:02;11.80;99.90
2489;DHT22;1255;48.716;9.124;2022-10-26T00:08:29;11.80;99.90
2489;DHT22;1255;48.716;9.124;2022-10-26T00:10:57;11.80;99.90
2489;DHT22;1255;48.716;9.124;2022-10-26T00:13:24;11.80;99.90
2489;DHT22;1255;48.716;9.124;2022-10-26T00:15:52;11.80;99.90
2489;DHT22;1255;48.716;9.124;2022-10-26T00:18:19;11.80;99.90
2489;DHT22;1255;48.716;9.124;2022-10-26T00:20:46;11.80;99.90
2489;DHT22;1255;48.716;9.124;2022-10-26T00:23:13;11.80;99.90
2489;DHT22;1255;48.716;9.124;2022-10-26T00:25:40;11.80;99.90
2489;DHT22;1255;48.716;9.124;2022-10-26T00:28:07;11.80;99.90
2489;DHT22;1255;48.716;9.124;2022-10-26T00:30:34;11.80;99.90
2489;DHT22;1255;48.716;9.124;2022-10-26T00:33:02;11.80;99.90
2489;DHT22;1255;48.716;9.124;2022-10-26T00:35:29;11.90;99.90
2489;DHT22;1255;48.716;9.124;2022-10-26T00:37:56;11.90;99.90
2489;DHT22;1255;48.716;9.124;2022-10-26T00:40:26;11.90;99.90
2489;DHT22;1255;48.716;9.124;2022-10-26T00:42:53;11.90;99.90
2489;DHT22;1255;48.716;9.124;2022-10-26T00:45:22;11.90;99.90
2489;DHT22;1255;48.716;9.124;2022-10-26T00:47:52;11.90;99.90
2489;DHT22;1255;48.716;9.124;2022-10-26T00:50:25;11.90;99.90
2489;DHT22;1255;48.716;9.124;2022-10-26T00:52:55;11.90;99.90
2489;DHT22;1255;48.716;9.124;2022-10-26T00:55:26;12.00;99.90
2489;DHT22;1255;48.716;9.124;2022-10-26T00:57:55;11.90;99.90
2489;DHT22;1255;48.716;9.124;2022-10-26T01:00:21;11.90;99.90
2489;DHT22;1255;48.716;9.124;2022-10-26T01:02:50;11.90;99.90
2489;DHT22;1255;48.716;9.124;2022-10-26T01:05:18;12.00;99.90
2489;DHT22;1255;48.716;9.124;2022-10-26T01:07:46;12.00;99.90
2489;DHT22;1255;48.716;9.124;2022-10-26T01:10:14;12.00;99.90
2489;DHT22;1255;48.716;9.124;2022-10-26T01:12:41;12.00;99.90
2489;DHT22;1255;48.716;9.124;2022-10-26T01:15:08;12.10;99.90
2489;DHT22;1255;48.716;9.124;2022-10-26T01:17:56;12.10;99.90
2489;DHT22;1255;48.716;9.124;2022-10-26T01:20:55;12.10;99.90
2489;DHT22;1255;48.716;9.124;2022-10-26T01:23:32;12.20;99.90
2489;DHT22;1255;48.716;9.124;2022-10-26T01:26:35;12.20;99.90
2489;DHT22;1255;48.716;9.124;2022-10-26T01:29:37;12.20;99.90
2489;DHT22;1255;48.716;9.124;2022-10-26T01:32:17;12.20;99.90
2489;DHT22;1255;48.716;9.124;2022-10-26T01:34:51;12.20;99.90
2489;DHT22;1255;48.716;9.124;2022-10-26T01:37:25;12.20;99.90
2489;DHT22;1255;48.716;9.124;2022-10-26T01:39:58;12.20;99.90
2489;DHT22;1255;48.716;9.124;2022-10-26T01:42:30;12.20;99.90
2489;DHT22;1255;48.716;9.124;2022-10-26T01:45:01;12.20;99.90
2489;DHT22;1255;48.716;9.124;2022-10-26T01:47:33;12.20;99.90
2489;DHT22;1255;48.716;9.124;2022-10-26T01:50:01;12.20;99.90
2489;DHT22;1255;48.716;9.124;2022-10-26T01:52:29;12.20;99.90
2489;DHT22;1255;48.716;9.124;2022-10-26T01:55:00;12.20;99.90
2489;DHT22;1255;48.716;9.124;2022-10-26T01:57:31;12.20;99.90
2489;DHT22;1255;48.716;9.124;2022-10-26T02:00:04;12.20;99.90
2489;DHT22;1255;48.716;9.124;2022-10-26T02:05:39;12.10;99.90
2489;DHT22;1255;48.716;9.124;2022-10-26T02:08:21;12.10;99.90
2489;DHT22;1255;48.716;9.124;2022-10-26T02:10:58;12.20;99.90
2489;DHT22;1255;48.716;9.124;2022-10-26T02:13:32;12.20;99.90
2489;DHT22;1255;48.716;9.124;2022-10-26T02:16:12;12.20;99.90
2489;DHT22;1255;48.716;9.124;2022-10-26T02:18:49;12.20;99.90
2489;DHT22;1255;48.716;9.124;2022-10-26T02:21:21;12.20;99.90
2489;DHT22;1255;48.716;9.124;2022-10-26T02:23:51;12.20;99.90
2489;DHT22;1255;48.716;9.124;2022-10-26T02:26:21;12.10;99.90
2489;DHT22;1255;48.716;9.124;2022-10-26T02:28:51;12.20;99.90
2489;DHT22;1255;48.716;9.124;2022-10-26T02:31:20;12.20;99.90
2489;DHT22;1255;48.716;9.124;2022-10-26T02:33:50;12.10;99.90
2489;DHT22;1255;48.716;9.124;2022-10-26T02:36:22;12.10;99.90
2489;DHT22;1255;48.716;9.124;2022-10-26T02:38:52;12.10;99.90
2489;DHT22;1255;48.716;9.124;2022-10-26T02:41:20;12.10;99.90
2489;DHT22;1255;48.716;9.124;2022-10-26T02:43:52;12.10;99.90
2489;DHT22;1255;48.716;9.124;2022-10-26T02:46:22;12.10;99.90
2489;DHT22;1255;48.716;9.124;2022-10-26T02:48:52;12.10;99.90
2489;DHT22;1255;48.716;9.124;2022-10-26T02:51:23;12.10;99.90
2489;DHT22;1255;48.716;9.124;2022-10-26T02:53:56;12.10;99.90
2489;DHT22;1255;48.716;9.124;2022-10-26T02:56:28;12.20;99.90
2489;DHT22;1255;48.716;9.124;2022-10-26T02:59:00;12.20;99.90
2489;DHT22;1255;48.716;9.124;2022-10-26T03:01:29;12.20;99.90
2489;DHT22;1255;48.716;9.124;2022-10-26T03:03:59;12.20;99.90
2489;DHT22;1255;48.716;9.124;2022-10-26T03:06:26;12.20;99.90
2489;DHT22;1255;48.716;9.124;2022-10-26T03:08:53;12.30;99.90
2489;DHT22;1255;48.716;9.124;2022-10-26T03:11:19;12.30;99.90
2489;DHT22;1255;48.716;9.124;2022-10-26T03:13:46;12.30;99.90
2489;DHT22;1255;48.716;9.124;2022-10-26T03:16:13;12.40;99.90
2489;DHT22;1255;48.716;9.124;2022-10-26T03:18:40;12.40;99.90
2489;DHT22;1255;48.716;9.124;2022-10-26T03:21:08;12.40;99.90
2489;DHT22;1255;48.716;9.124;2022-10-26T03:23:35;12.50;99.90
2489;DHT22;1255;48.716;9.124;2022-10-26T03:26:05;12.50;99.90
2489;DHT22;1255;48.716;9.124;2022-10-26T03:28:49;12.50;99.90
2489;DHT22;1255;48.716;9.124;2022-10-26T03:31:16;12.50;99.90
2489;DHT22;1255;48.716;9.124;2022-10-26T03:33:43;12.60;99.90
2489;DHT22;1255;48.716;9.124;2022-10-26T03:36:11;12.60;99.90
2489;DHT22;1255;48.716;9.124;2022-10-26T03:38:38;12.70;99.90
2489;DHT22;1255;48.716;9.124;2022-10-26T03:41:05;12.70;99.90
2489;DHT22;1255;48.716;9.124;2022-10-26T03:43:32;12.80;99.90
2489;DHT22;1255;48.716;9.124;2022-10-26T03:45:58;12.80;99.90
2489;DHT22;1255;48.716;9.124;2022-10-26T03:48:25;12.90;99.90
2489;DHT22;1255;48.716;9.124;2022-10-26T03:50:56;12.90;99.90
2489;DHT22;1255;48.716;9.124;2022-10-26T03:53:24;12.90;99.90
2489;DHT22;1255;48.716;9.124;2022-10-26T03:55:51;12.90;99.90
2489;DHT22;1255;48.716;9.124;2022-10-26T03:58:18;13.00;99.90
2489;DHT22;1255;48.716;9.124;2022-10-26T04:00:45;13.00;99.90
2489;DHT22;1255;48.716;9.124;2022-10-26T04:03:12;13.00;99.90
2489;DHT22;1255;48.716;9.124;2022-10-26T04:05:39;13.00;99.90
2489;DHT22;1255;48.716;9.124;2022-10-26T04:08:07;13.00;99.90
2489;DHT22;1255;48.716;9.124;2022-10-26T04:10:35;13.00;99.90
2489;DHT22;1255;48.716;9.124;2022-10-26T04:13:02;13.00;99.90
2489;DHT22;1255;48.716;9.124;2022-10-26T04:15:28;13.10;99.90
2489;DHT22;1255;48.716;9.124;2022-10-26T04:17:56;13.10;99.90
2489;DHT22;1255;48.716;9.124;2022-10-26T04:20:23;13.10;99.90
2489;DHT22;1255;48.716;9.124;2022-10-26T04:22:58;13.20;99.90
2489;DHT22;1255;48.716;9.124;2022-10-26T04:25:25;13.20;99.90
2489;DHT22;1255;48.716;9.124;2022-10-26T04:27:53;13.20;99.90
2489;DHT22;1255;48.716;9.124;2022-10-26T04:30:20;13.20;99.90
2489;DHT22;1255;48.716;9.124;2022-10-26T04:32:46;13.20;99.90
2489;DHT22;1255;48.716;9.124;2022-10-26T04:35:13;13.20;99.90
2489;DHT22;1255;48.716;9.124;2022-10-26T04:37:40;13.20;99.90
2489;DHT22;1255;48.716;9.124;2022-10-26T04:40:07;13.20;99.90
2489;DHT22;1255;48.716;9.124;2022-10-26T04:42:40;13.20;99.90
2489;DHT22;1255;48.716;9.124;2022-10-26T04:45:09;13.10;99.90
2489;DHT22;1255;48.716;9.124;2022-10-26T04:47:36;13.10;99.90
2489;DHT22;1255;48.716;9.124;2022-10-26T04:50:04;13.10;99.90
2489;DHT22;1255;48.716;9.124;2022-10-26T04:52:31;13.10;99.90
2489;DHT22;1255;48.716;9.124;2022-10-26T04:54:58;13.10;99.90
2489;DHT22;1255;48.716;9.124;2022-10-26T04:57:24;13.10;99.90
2489;DHT22;1255;48.716;9.124;2022-10-26T04:59:51;13.10;99.90
2489;DHT22;1255;48.716;9.124;2022-10-26T05:02:19;13.10;99.90
2489;DHT22;1255;48.716;9.124;2022-10-26T05:04:47;13.10;99.90
2489;DHT22;1255;48.716;9.124;2022-10-26T05:07:13;13.00;99.90
2489;DHT22;1255;48.716;9.124;2022-10-26T05:09:40;13.00;99.90
2489;DHT22;1255;48.716;9.124;2022-10-26T05:12:07;13.10;99.90
2489;DHT22;1255;48.716;9.124;2022-10-26T05:14:34;13.10;99.90
2489;DHT22;1255;48.716;9.124;2022-10-26T05:17:00;13.10;99.90
2489;DHT22;1255;48.716;9.124;2022-10-26T05:19:28;13.10;99.90
2489;DHT22;1255;48.716;9.124;2022-10-26T05:21:55;13.10;99.90
2489;DHT22;1255;48.716;9.124;2022-10-26T05:24:22;13.20;99.90
2489;DHT22;1255;48.716;9.124;2022-10-26T05:26:48;13.20;99.90
2489;DHT22;1255;48.716;9.124;2022-10-26T05:29:15;13.20;99.90
2489;DHT22;1255;48.716;9.124;2022-10-26T05:31:42;13.20;99.90
2489;DHT22;1255;48.716;9.124;2022-10-26T05:34:09;13.20;99.90
2489;DHT22;1255;48.716;9.124;2022-10-26T05:36:37;13.20;99.90
2489;DHT22;1255;48.716;9.124;2022-10-26T05:39:04;13.20;99.90
2489;DHT22;1255;48.716;9.124;2022-10-26T05:41:30;13.20;99.90
2489;DHT22;1255;48.716;9.124;2022-10-26T05:43:57;13.20;99.90
2489;DHT22;1255;48.716;9.124;2022-10-26T05:46:24;13.20;99.90
2489;DHT22;1255;48.716;9.124;2022-10-26T05:48:51;13.20;99.90
2489;DHT22;1255;48.716;9.124;2022-10-26T05:51:17;13.20;99.90
2489;DHT22;1255;48.716;9.124;2022-10-26T05:53:45;13.30;99.90
2489;DHT22;1255;48.716;9.124;2022-10-26T05:56:17;13.30;99.90
2489;DHT22;1255;48.716;9.124;2022-10-26T05:58:45;13.30;99.90
2489;DHT22;1255;48.716;9.124;2022-10-26T06:01:18;13.40;99.90
2489;DHT22;1255;48.716;9.124;2022-10-26T06:04:05;13.40;99.90
2489;DHT22;1255;48.716;9.124;2022-10-26T06:06:38;13.40;99.90
2489;DHT22;1255;48.716;9.124;2022-10-26T06:09:08;13.40;99.90
2489;DHT22;1255;48.716;9.124;2022-10-26T06:11:36;13.40;99.90
2489;DHT22;1255;48.716;9.124;2022-10-26T06:14:04;13.40;99.90
2489;DHT22;1255;48.716;9.124;2022-10-26T06:19:30;13.40;99.90
2489;DHT22;1255;48.716;9.124;2022-10-26T06:22:22;13.50;99.90
2489;DHT22;1255;48.716;9.124;2022-10-26T06:25:00;13.50;99.90
2489;DHT22;1255;48.716;9.124;2022-10-26T06:27:37;13.50;99.90
2489;DHT22;1255;48.716;9.124;2022-10-26T06:30:20;13.60;99.90
2489;DHT22;1255;48.716;9.124;2022-10-26T06:33:03;13.70;99.90
2489;DHT22;1255;48.716;9.124;2022-10-26T06:35:46;13.70;99.90
2489;DHT22;1255;48.716;9.124;2022-10-26T06:41:38;13.80;99.90
2489;DHT22;1255;48.716;9.124;2022-10-26T06:44:18;13.80;99.90
2489;DHT22;1255;48.716;9.124;2022-10-26T06:47:05;13.80;99.90
2489;DHT22;1255;48.716;9.124;2022-10-26T06:49:40;13.80;99.90
2489;DHT22;1255;48.716;9.124;2022-10-26T06:52:12;13.80;99.90
2489;DHT22;1255;48.716;9.124;2022-10-26T06:54:48;13.80;99.90
2489;DHT22;1255;48.716;9.124;2022-10-26T06:57:34;13.90;99.90
2489;DHT22;1255;48.716;9.124;2022-10-26T07:00:05;13.90;99.90
2489;DHT22;1255;48.716;9.124;2022-10-26T07:02:32;13.90;99.90
2489;DHT22;1255;48.716;9.124;2022-10-26T07:04:59;14.00;99.90
2489;DHT22;1255;48.716;9.124;2022-10-26T07:07:28;14.00;99.90
2489;DHT22;1255;48.716;9.124;2022-10-26T07:09:56;14.00;99.90
2489;DHT22;1255;48.716;9.124;2022-10-26T07:12:23;14.10;99.90
2489;DHT22;1255;48.716;9.124;2022-10-26T07:14:51;14.10;99.90
2489;DHT22;1255;48.716;9.124;2022-10-26T07:17:18;14.10;99.90
2489;DHT22;1255;48.716;9.124;2022-10-26T07:19:45;14.10;99.90
2489;DHT22;1255;48.716;9.124;2022-10-26T07:22:13;14.20;99.90
2489;DHT22;1255;48.716;9.124;2022-10-26T07:24:40;14.20;99.90
2489;DHT22;1255;48.716;9.124;2022-10-26T07:27:07;14.20;99.90
2489;DHT22;1255;48.716;9.124;2022-10-26T07:29:34;14.20;99.90
2489;DHT22;1255;48.716;9.124;2022-10-26T07:32:03;14.30;99.90
2489;DHT22;1255;48.716;9.124;2022-10-26T07:34:30;14.30;99.90
2489;DHT22;1255;48.716;9.124;2022-10-26T07:36:58;14.30;99.90
2489;DHT22;1255;48.716;9.124;2022-10-26T07:39:25;14.30;99.90
2489;DHT22;1255;48.716;9.124;2022-10-26T07:41:52;14.30;99.90
2489;DHT22;1255;48.716;9.124;2022-10-26T07:44:19;14.30;99.90
2489;DHT22;1255;48.716;9.124;2022-10-26T07:46:45;14.40;99.90
2489;DHT22;1255;48.716;9.124;2022-10-26T07:49:14;14.40;99.90
2489;DHT22;1255;48.716;9.124;2022-10-26T07:51:41;14.40;99.90
2489;DHT22;1255;48.716;9.124;2022-10-26T07:54:08;14.40;99.90
2489;DHT22;1255;48.716;9.124;2022-10-26T07:56:34;14.50;99.90
2489;DHT22;1255;48.716;9.124;2022-10-26T07:59:02;14.50;99.90
2489;DHT22;1255;48.716;9.124;2022-10-26T08:01:29;14.50;99.90
2489;DHT22;1255;48.716;9.124;2022-10-26T08:03:55;14.50;99.90
2489;DHT22;1255;48.716;9.124;2022-10-26T08:06:24;14.50;99.90
2489;DHT22;1255;48.716;9.124;2022-10-26T08:08:50;14.60;99.90
2489;DHT22;1255;48.716;9.124;2022-10-26T08:11:17;14.60;99.90
2489;DHT22;1255;48.716;9.124;2022-10-26T08:13:44;14.60;99.90
2489;DHT22;1255;48.716;9.124;2022-10-26T08:16:11;14.70;99.90
2489;DHT22;1255;48.716;9.124;2022-10-26T08:18:38;14.70;99.90
2489;DHT22;1255;48.716;9.124;2022-10-26T08:21:08;14.70;99.90
2489;DHT22;1255;48.716;9.124;2022-10-26T08:23:37;14.60;99.90
2489;DHT22;1255;48.716;9.124;2022-10-26T08:26:04;14.70;99.90
2489;DHT22;1255;48.716;9.124;2022-10-26T08:28:32;14.60;99.90
2489;DHT22;1255;48.716;9.124;2022-10-26T08:30:59;14.60;99.90
2489;DHT22;1255;48.716;9.124;2022-10-26T08:33:26;14.70;99.90
2489;DHT22;1255;48.716;9.124;2022-10-26T08:35:58;14.70;99.90
2489;DHT22;1255;48.716;9.124;2022-10-26T08:38:26;14.70;99.90
2489;DHT22;1255;48.716;9.124;2022-10-26T08:40:56;14.80;99.90
2489;DHT22;1255;48.716;9.124;2022-10-26T08:43:28;14.70;99.90
2489;DHT22;1255;48.716;9.124;2022-10-26T08:46:03;14.80;99.90
2489;DHT22;1255;48.716;9.124;2022-10-26T08:48:37;14.80;99.90
2489;DHT22;1255;48.716;9.124;2022-10-26T08:51:09;14.90;99.90
2489;DHT22;1255;48.716;9.124;2022-10-26T08:53:40;14.90;99.90
2489;DHT22;1255;48.716;9.124;2022-10-26T08:56:16;15.00;99.90
2489;DHT22;1255;48.716;9.124;2022-10-26T08:58:47;15.00;99.90
2489;DHT22;1255;48.716;9.124;2022-10-26T09:01:16;15.10;99.90
2489;DHT22;1255;48.716;9.124;2022-10-26T09:03:44;15.10;99.90
2489;DHT22;1255;48.716;9.124;2022-10-26T09:06:19;15.20;99.90
2489;DHT22;1255;48.716;9.124;2022-10-26T09:08:56;15.30;99.90
2489;DHT22;1255;48.716;9.124;2022-10-26T09:11:39;15.30;99.90
2489;DHT22;1255;48.716;9.124;2022-10-26T09:14:15;15.40;99.90
2489;DHT22;1255;48.716;9.124;2022-10-26T09:16:52;15.50;99.90
2489;DHT22;1255;48.716;9.124;2022-10-26T09:19:41;15.60;99.90
2489;DHT22;1255;48.716;9.124;2022-10-26T09:22:13;15.60;99.90
2489;DHT22;1255;48.716;9.124;2022-10-26T09:24:48;15.80;99.90
2489;DHT22;1255;48.716;9.124;2022-10-26T09:27:23;16.10;99.90
2489;DHT22;1255;48.716;9.124;2022-10-26T09:29:51;16.30;99.90
2489;DHT22;1255;48.716;9.124;2022-10-26T09:32:22;16.30;99.90
2489;DHT22;1255;48.716;9.124;2022-10-26T09:34:51;16.40;99.90
2489;DHT22;1255;48.716;9.124;2022-10-26T09:37:22;16.70;99.90
2489;DHT22;1255;48.716;9.124;2022-10-26T09:39:56;17.20;99.90
2489;DHT22;1255;48.716;9.124;2022-10-26T09:42:32;17.80;99.90
2489;DHT22;1255;48.716;9.124;2022-10-26T09:45:05;18.40;99.90
2489;DHT22;1255;48.716;9.124;2022-10-26T09:47:38;18.80;99.90
2489;DHT22;1255;48.716;9.124;2022-10-26T09:50:19;19.30;99.90
2489;DHT22;1255;48.716;9.124;2022-10-26T09:52:47;19.80;99.90
2489;DHT22;1255;48.716;9.124;2022-10-26T09:55:14;20.30;99.90
2489;DHT22;1255;48.716;9.124;2022-10-26T09:57:46;20.60;99.90
2489;DHT22;1255;48.716;9.124;2022-10-26T10:00:17;20.90;99.90
2489;DHT22;1255;48.716;9.124;2022-10-26T10:02:47;21.00;99.90
2489;DHT22;1255;48.716;9.124;2022-10-26T10:05:25;21.00;99.90
2489;DHT22;1255;48.716;9.124;2022-10-26T10:08:09;20.60;99.90
2489;DHT22;1255;48.716;9.124;2022-10-26T10:10:37;20.10;99.90
2489;DHT22;1255;48.716;9.124;2022-10-26T10:13:15;19.70;99.90
2489;DHT22;1255;48.716;9.124;2022-10-26T10:15:51;19.40;99.90
2489;DHT22;1255;48.716;9.124;2022-10-26T10:18:20;19.20;99.90
2489;DHT22;1255;48.716;9.124;2022-10-26T10:20:53;19.10;99.90
2489;DHT22;1255;48.716;9.124;2022-10-26T10:23:27;19.10;99.90
2489;DHT22;1255;48.716;9.124;2022-10-26T10:25:59;19.40;99.90
2489;DHT22;1255;48.716;9.124;2022-10-26T10:28:27;19.80;99.90
2489;DHT22;1255;48.716;9.124;2022-10-26T10:30:55;20.30;99.90
2489;DHT22;1255;48.716;9.124;2022-10-26T10:33:31;20.80;99.90
2489;DHT22;1255;48.716;9.124;2022-10-26T10:35:59;21.20;99.90
2489;DHT22;1255;48.716;9.124;2022-10-26T10:38:27;21.50;99.90
2489;DHT22;1255;48.716;9.124;2022-10-26T10:40:56;21.70;99.90
2489;DHT22;1255;48.716;9.124;2022-10-26T10:43:24;21.50;99.90
2489;DHT22;1255;48.716;9.124;2022-10-26T10:45:55;21.30;99.90
2489;DHT22;1255;48.716;9.124;2022-10-26T10:48:24;21.10;99.90
2489;DHT22;1255;48.716;9.124;2022-10-26T10:50:55;20.90;99.90
2489;DHT22;1255;48.716;9.124;2022-10-26T10:53:26;20.80;99.90
2489;DHT22;1255;48.716;9.124;2022-10-26T10:56:07;20.70;99.90
2489;DHT22;1255;48.716;9.124;2022-10-26T10:58:45;20.60;99.90
2489;DHT22;1255;48.716;9.124;2022-10-26T11:01:20;20.40;99.90
2489;DHT22;1255;48.716;9.124;2022-10-26T11:06:50;20.40;99.90
2489;DHT22;1255;48.716;9.124;2022-10-26T11:09:23;20.30;99.90
2489;DHT22;1255;48.716;9.124;2022-10-26T11:11:54;20.40;99.90
2489;DHT22;1255;48.716;9.124;2022-10-26T11:14:26;20.40;99.90
2489;DHT22;1255;48.716;9.124;2022-10-26T11:17:01;20.20;99.90
2489;DHT22;1255;48.716;9.124;2022-10-26T11:19:32;20.10;99.90
2489;DHT22;1255;48.716;9.124;2022-10-26T11:22:03;20.10;99.90
2489;DHT22;1255;48.716;9.124;2022-10-26T11:24:35;20.00;99.90
2489;DHT22;1255;48.716;9.124;2022-10-26T11:27:12;19.90;99.90
2489;DHT22;1255;48.716;9.124;2022-10-26T11:29:42;19.90;99.90
2489;DHT22;1255;48.716;9.124;2022-10-26T11:32:15;20.00;99.90
2489;DHT22;1255;48.716;9.124;2022-10-26T11:34:48;20.10;99.90
2489;DHT22;1255;48.716;9.124;2022-10-26T11:37:22;20.30;99.90
2489;DHT22;1255;48.716;9.124;2022-10-26T11:40:01;20.60;99.90
2489;DHT22;1255;48.716;9.124;2022-10-26T11:42:35;20.90;99.90
2489;DHT22;1255;48.716;9.124;2022-10-26T11:45:11;21.20;99.90
2489;DHT22;1255;48.716;9.124;2022-10-26T11:47:45;21.50;99.90
2489;DHT22;1255;48.716;9.124;2022-10-26T11:50:16;21.70;99.90
2489;DHT22;1255;48.716;9.124;2022-10-26T11:52:47;21.90;99.90
2489;DHT22;1255;48.716;9.124;2022-10-26T11:55:16;22.00;99.90
2489;DHT22;1255;48.716;9.124;2022-10-26T11:57:44;22.00;99.90
2489;DHT22;1255;48.716;9.124;2022-10-26T12:00:15;21.70;99.90
2489;DHT22;1255;48.716;9.124;2022-10-26T12:02:47;21.40;99.90
2489;DHT22;1255;48.716;9.124;2022-10-26T12:05:22;21.20;99.90
2489;DHT22;1255;48.716;9.124;2022-10-26T12:07:53;21.00;99.90
2489;DHT22;1255;48.716;9.124;2022-10-26T12:10:24;20.90;99.90
2489;DHT22;1255;48.716;9.124;2022-10-26T12:12:57;20.70;99.90
2489;DHT22;1255;48.716;9.124;2022-10-26T12:18:03;20.40;99.90
2489;DHT22;1255;48.716;9.124;2022-10-26T12:20:53;20.30;99.90
2489;DHT22;1255;48.716;9.124;2022-10-26T12:23:22;20.20;99.90
2489;DHT22;1255;48.716;9.124;2022-10-26T12:25:49;20.20;99.90
2489;DHT22;1255;48.716;9.124;2022-10-26T12:28:38;20.20;99.90
2489;DHT22;1255;48.716;9.124;2022-10-26T12:31:42;20.20;99.90
2489;DHT22;1255;48.716;9.124;2022-10-26T12:34:14;20.20;99.90
2489;DHT22;1255;48.716;9.124;2022-10-26T12:36:48;20.20;99.90
2489;DHT22;1255;48.716;9.124;2022-10-26T12:39:29;20.20;99.90
2489;DHT22;1255;48.716;9.124;2022-10-26T12:41:57;20.20;99.90
2489;DHT22;1255;48.716;9.124;2022-10-26T12:44:32;20.20;99.90
2489;DHT22;1255;48.716;9.124;2022-10-26T12:47:00;20.20;99.90
2489;DHT22;1255;48.716;9.124;2022-10-26T12:52:48;20.20;99.90
2489;DHT22;1255;48.716;9.124;2022-10-26T12:55:55;20.20;99.90
2489;DHT22;1255;48.716;9.124;2022-10-26T12:58:49;20.20;99.90
2489;DHT22;1255;48.716;9.124;2022-10-26T13:01:37;20.40;99.90
2489;DHT22;1255;48.716;9.124;2022-10-26T13:04:21;20.90;99.90
2489;DHT22;1255;48.716;9.124;2022-10-26T13:07:16;21.20;99.90
2489;DHT22;1255;48.716;9.124;2022-10-26T13:10:00;21.20;99.90
2489;DHT22;1255;48.716;9.124;2022-10-26T13:12:36;21.10;99.90
2489;DHT22;1255;48.716;9.124;2022-10-26T13:15:13;21.00;99.90
2489;DHT22;1255;48.716;9.124;2022-10-26T13:17:52;21.10;99.90
2489;DHT22;1255;48.716;9.124;2022-10-26T13:20:20;21.40;99.90
2489;DHT22;1255;48.716;9.124;2022-10-26T13:22:47;21.80;99.90
2489;DHT22;1255;48.716;9.124;2022-10-26T13:25:22;22.10;99.90
2489;DHT22;1255;48.716;9.124;2022-10-26T13:27:59;22.30;99.90
2489;DHT22;1255;48.716;9.124;2022-10-26T13:30:44;22.50;99.90
2489;DHT22;1255;48.716;9.124;2022-10-26T13:33:30;22.70;99.90
2489;DHT22;1255;48.716;9.124;2022-10-26T13:36:02;23.00;99.90
2489;DHT22;1255;48.716;9.124;2022-10-26T13:38:33;23.00;99.90
2489;DHT22;1255;48.716;9.124;2022-10-26T13:41:11;23.20;99.90
2489;DHT22;1255;48.716;9.124;2022-10-26T13:43:41;23.10;99.90
2489;DHT22;1255;48.716;9.124;2022-10-26T13:46:22;23.10;99.90
2489;DHT22;1255;48.716;9.124;2022-10-26T13:48:51;23.10;99.90
2489;DHT22;1255;48.716;9.124;2022-10-26T13:51:20;23.20;99.90
2489;DHT22;1255;48.716;9.124;2022-10-26T13:53:51;23.10;99.90
2489;DHT22;1255;48.716;9.124;2022-10-26T13:56:25;23.00;99.90
2489;DHT22;1255;48.716;9.124;2022-10-26T13:58:57;22.80;99.90
2489;DHT22;1255;48.716;9.124;2022-10-26T14:01:26;22.80;99.90
2489;DHT22;1255;48.716;9.124;2022-10-26T14:03:53;22.80;99.90
2489;DHT22;1255;48.716;9.124;2022-10-26T14:06:25;22.80;99.90
2489;DHT22;1255;48.716;9.124;2022-10-26T14:08:54;22.90;99.90
2489;DHT22;1255;48.716;9.124;2022-10-26T14:11:30;22.90;99.90
2489;DHT22;1255;48.716;9.124;2022-10-26T14:13:57;23.10;99.90
2489;DHT22;1255;48.716;9.124;2022-10-26T14:16:27;23.00;99.90
2489;DHT22;1255;48.716;9.124;2022-10-26T14:18:55;22.90;99.90
2489;DHT22;1255;48.716;9.124;2022-10-26T14:21:22;22.80;99.90
2489;DHT22;1255;48.716;9.124;2022-10-26T14:23:51;22.70;99.90
2489;DHT22;1255;48.716;9.124;2022-10-26T14:26:23;22.50;99.90
2489;DHT22;1255;48.716;9.124;2022-10-26T14:28:52;22.40;99.90
2489;DHT22;1255;48.716;9.124;2022-10-26T14:31:25;22.20;99.90
2489;DHT22;1255;48.716;9.124;2022-10-26T14:33:53;22.00;99.90
2489;DHT22;1255;48.716;9.124;2022-10-26T14:36:22;21.70;99.90
2489;DHT22;1255;48.716;9.124;2022-10-26T14:38:56;21.40;99.90
2489;DHT22;1255;48.716;9.124;2022-10-26T14:41:25;21.30;99.90
2489;DHT22;1255;48.716;9.124;2022-10-26T14:43:55;21.20;99.90
2489;DHT22;1255;48.716;9.124;2022-10-26T14:46:22;21.20;99.90
2489;DHT22;1255;48.716;9.124;2022-10-26T14:48:52;21.30;99.90
2489;DHT22;1255;48.716;9.124;2022-10-26T14:51:21;21.30;99.90
2489;DHT22;1255;48.716;9.124;2022-10-26T14:53:51;21.40;99.90
2489;DHT22;1255;48.716;9.124;2022-10-26T14:56:25;21.30;99.90
2489;DHT22;1255;48.716;9.124;2022-10-26T14:58:53;21.30;99.90
2489;DHT22;1255;48.716;9.124;2022-10-26T15:01:29;21.30;99.90
2489;DHT22;1255;48.716;9.124;2022-10-26T15:03:57;21.40;99.90
2489;DHT22;1255;48.716;9.124;2022-10-26T15:06:30;21.40;99.90
2489;DHT22;1255;48.716;9.124;2022-10-26T15:08:57;21.40;99.90
2489;DHT22;1255;48.716;9.124;2022-10-26T15:11:27;21.30;99.90
2489;DHT22;1255;48.716;9.124;2022-10-26T15:13:55;21.20;99.90
2489;DHT22;1255;48.716;9.124;2022-10-26T15:16:24;21.10;99.90
2489;DHT22;1255;48.716;9.124;2022-10-26T15:18:54;21.00;99.90
2489;DHT22;1255;48.716;9.124;2022-10-26T15:21:23;20.90;99.90
2489;DHT22;1255;48.716;9.124;2022-10-26T15:23:52;20.80;99.90
2489;DHT22;1255;48.716;9.124;2022-10-26T15:26:20;20.70;99.90
2489;DHT22;1255;48.716;9.124;2022-10-26T15:28:48;20.50;99.90
2489;DHT22;1255;48.716;9.124;2022-10-26T15:31:31;20.40;99.90
2489;DHT22;1255;48.716;9.124;2022-10-26T15:34:12;20.20;99.90
2489;DHT22;1255;48.716;9.124;2022-10-26T15:36:40;20.10;99.90
2489;DHT22;1255;48.716;9.124;2022-10-26T15:39:07;19.90;99.90
2489;DHT22;1255;48.716;9.124;2022-10-26T15:41:36;19.80;99.90
2489;DHT22;1255;48.716;9.124;2022-10-26T15:44:11;19.70;99.90
2489;DHT22;1255;48.716;9.124;2022-10-26T15:46:40;19.50;99.90
2489;DHT22;1255;48.716;9.124;2022-10-26T15:49:14;19.40;99.90
2489;DHT22;1255;48.716;9.124;2022-10-26T15:51:42;19.20;99.90
2489;DHT22;1255;48.716;9.124;2022-10-26T15:54:09;19.10;99.90
2489;DHT22;1255;48.716;9.124;2022-10-26T15:56:36;18.90;99.90
2489;DHT22;1255;48.716;9.124;2022-10-26T15:59:12;18.70;99.90
2489;DHT22;1255;48.716;9.124;2022-10-26T16:01:39;18.50;99.90
2489;DHT22;1255;48.716;9.124;2022-10-26T16:04:07;18.30;99.90
2489;DHT22;1255;48.716;9.124;2022-10-26T16:06:34;18.20;99.90
2489;DHT22;1255;48.716;9.124;2022-10-26T16:09:02;18.00;99.90
2489;DHT22;1255;48.716;9.124;2022-10-26T16:11:30;17.90;99.90
2489;DHT22;1255;48.716;9.124;2022-10-26T16:13:56;17.70;99.90
2489;DHT22;1255;48.716;9.124;2022-10-26T16:16:25;17.60;99.90
2489;DHT22;1255;48.716;9.124;2022-10-26T16:18:53;17.50;99.90
2489;DHT22;1255;48.716;9.124;2022-10-26T16:21:21;17.50;99.90
2489;DHT22;1255;48.716;9.124;2022-10-26T16:23:49;17.30;99.90
2489;DHT22;1255;48.716;9.124;2022-10-26T16:26:17;17.20;99.90
2489;DHT22;1255;48.716;9.124;2022-10-26T16:28:44;17.10;99.90
2489;DHT22;1255;48.716;9.124;2022-10-26T16:31:13;17.00;99.90
2489;DHT22;1255;48.716;9.124;2022-10-26T16:33:41;16.90;99.90
2489;DHT22;1255;48.716;9.124;2022-10-26T16:36:09;16.90;99.90
2489;DHT22;1255;48.716;9.124;2022-10-26T16:38:36;16.80;99.90
2489;DHT22;1255;48.716;9.124;2022-10-26T16:41:05;16.70;99.90
2489;DHT22;1255;48.716;9.124;2022-10-26T16:43:34;16.60;99.90
2489;DHT22;1255;48.716;9.124;2022-10-26T16:46:04;16.60;99.90